Airfield :
LOGIN :

Register | Disclaimer

   EN    FR    IT 

 










Legend :    VFR   Marginal VFR   IFR   Intensive IFR   Very Intensive IFR
Visi :
Ceiling :
>= 8 km
>= 3000ft
5 to 8 km
1000 to 3000 ft
1500m to 5 km
500 to 1000 ft
800 to 1500m
200 to 500 ft
< 800m
< 200 ft
Symbols :   Thunderstorms  Fog  Heavy snow  Heavy precipitations  Wind > 20 kt
SIGMETs :     Misc.  Thunderstorms  Icing  Turbulence  Mountain Waves  Volcanic Ashes







- Airport Elevation : 148 ft
- IATA code : ALL


LIMG - Villanova D'Albenga International

CURRENT METAR :
  • 261450Z 26011KT 9999 FEW035 SCT060 18/06 Q1013

EXPIRED METARs :
  • 261350Z 27014KT 9999 SCT045TCU 18/03 Q1013
  • 261250Z 21011G21KT 180V260 9999 FEW035 20/11 Q1013

Expired Forecast.
No reported NOTAMs for that airfield.
4 SIGMETs reported for the Milano FIR (LIMM) :
 
Embedded thunderstorms
LIMM SIGMET 19 VALID 261445/261645 LIIP
LIMM MILANO FIR EMBD TS OBS WI N4457 E00928 - N4346 E00742 - N4433 E00648 - N4542 E00844 - N4658 E01216 - N4629 E01351 - N4541 E01334 - N4522 E01211 - N4457 E00928 TOP FL280 MOV E NC=
Squall lined thunderstorms and hail
LIMM SIGMET 17 VALID 261402/261602 LIIP
LIMM MILANO FIR SQLTSGR OBS WI N4520 E00932 - N4507 E00951 - N4550 E01023 - N4630 E01054 - N4633 E01016 - N4520 E00932 TOP FL320 MOV ENE NC=
Squall lined thunderstorms and hail
LIMM SIGMET 16 VALID 261302/261502 LIIP
LIMM MILANO FIR SQLTSGR OBS WI N4446 E00825 - N4520 E00922 - N4539 E00949 - N4633 E01022 - N4627 E00928 - N4446 E00825 TOP FL320 MOV ENE NC=
Severe turbulence
LIMM SIGMET 14 VALID 261245/261645 LIIP
LIMM MILANO FIR SEV TURB OBS N OF LINE N4507 E00637 - N4557 E01343 FL180/330 MOV E NC=



MET'MAP, your aeronautical weather chart ! - Copyright ORBIFLY December 2007 - Disclaimer

ORBIFLY MET'MAP TEAM :

Programming & Development : Alexandra Zaïnal
Concept & Development : Baudouin d'Aumeries
Co-Development & Prog : Marc-Olivier Méhu
Technical & hardware support : Manuel Goepfert

Contact : metmap@orbifly.com




SOURCES & CREDITS :

   NOAA